Maersk Barry — OYJE2 — position and weather

sailwx.info

Track history (hours):
 
Tides and Currents Weather Stations Pressure Air Temp Water Temp Dewpoint Dewpoint Depression Visibility Wind Speed Wind Dir Waves Ship Positions

Maersk Barry

Last reported at 2015-Jul-17 15:19 UTC. Time now 2015-Jul-29 13:32 UTC.
Position N 22°03' E 113°51'.
Warning: this ship's position is 11 days out of date.

Length 175 m; draft 6.8 m.

Type: Tanker. MMSI: 219127000.

Date/timePositionNaut miles runAvg speedWind from/ knotsBaromVisibWave heightAir tempDewpointWater temp
2015-Jul-17 15:19N 22°03' E 113°51'810.5
2015-Jul-17 14:33N 22°10' E 113°47'1211.9
2015-Jul-17 13:33N 22°22' E 113°47'2412.2
2015-Jul-17 11:33N 22°45' E 113°39'1010.4
2015-Jul-17 10:33N 22°55' E 113°34'4 3.6
2015-Jul-17 09:22N 22°59' E 113°33'0 0.0
2015-Jul-17 08:16N 22°59' E 113°33'0 0.0
2015-Jul-17 07:10N 22°59' E 113°33'0 0.0
2015-Jul-17 06:16N 22°59' E 113°33'0 0.0
2015-Jul-17 05:22N 22°59' E 113°33'0 0.0
2015-Jul-17 04:22N 22°59' E 113°33'0 0.0
2015-Jul-17 03:28N 22°59' E 113°33'0 0.0
2015-Jul-17 02:28N 22°59' E 113°33'0 0.0
2015-Jul-17 01:16N 22°59' E 113°33'0 0.0
2015-Jul-17 00:22N 22°59' E 113°33'0 0.0
2015-Jul-16 23:28N 22°59' E 113°33'0 0.0
2015-Jul-16 22:28N 22°59' E 113°33'0 0.0
2015-Jul-16 21:10N 22°59' E 113°33'0 0.0
2015-Jul-16 20:22N 22°59' E 113°33'0 0.0
2015-Jul-16 19:28N 22°59' E 113°33'0 0.0
2015-Jul-16 18:28N 22°59' E 113°33'0 0.0
2015-Jul-16 17:16N 22°59' E 113°33'0 0.0
2015-Jul-16 14:22N 22°59' E 113°33'0 0.0
2015-Jul-16 13:28N 22°59' E 113°33'0 0.0
2015-Jul-16 12:22N 22°59' E 113°33'0 0.0
2015-Jul-16 11:22N 22°59' E 113°33'0 0.0
2015-Jul-16 10:28N 22°59' E 113°33'0 0.0
2015-Jul-16 09:28N 22°59' E 113°33'0 0.0
2015-Jul-16 08:28N 22°59' E 113°33'0 0.0
2015-Jul-16 07:28N 22°59' E 113°33'0 0.0
2015-Jul-16 06:28N 22°59' E 113°33'0 0.0
2015-Jul-16 04:28N 22°59' E 113°33'0 0.0
2015-Jul-16 02:28N 22°59' E 113°33'0 0.0
2015-Jul-15 23:28N 22°59' E 113°33'0 0.0
2015-Jul-15 22:22N 22°59' E 113°33'0 0.0
2015-Jul-15 21:16N 22°59' E 113°33'0 0.0
2015-Jul-15 20:22N 22°59' E 113°33'0 0.0
2015-Jul-15 19:28N 22°59' E 113°33'0 0.0
2015-Jul-15 18:28N 22°59' E 113°33'0 0.0
2015-Jul-15 17:28N 22°59' E 113°33'0 0.0
2015-Jul-15 16:22N 22°59' E 113°33'0 0.0
2015-Jul-15 15:22N 22°59' E 113°33'0 0.0
2015-Jul-15 14:22N 22°59' E 113°33'0 0.0
2015-Jul-15 13:22N 22°59' E 113°33'0 0.0
2015-Jul-15 12:28N 22°59' E 113°33'0 0.0
2015-Jul-15 11:28N 22°59' E 113°33'0 0.0
2015-Jul-15 10:10N 22°59' E 113°33'0 0.0
2015-Jul-15 09:28N 22°59' E 113°33'0 0.0
2015-Jul-15 08:10N 22°59' E 113°33'0 0.0
2015-Jul-15 07:28N 22°59' E 113°33'0 0.2
2015-Jul-15 06:33N 22°59' E 113°32'6 6.1
2015-Jul-15 05:33N 22°53' E 113°34'8 7.5
2015-Jul-15 04:28N 22°46' E 113°39'2312.0
2015-Jul-15 02:33N 22°24' E 113°46'1211.9
2015-Jul-15 01:33N 22°12' E 113°47'7 6.7
2015-Jul-15 00:33N 22°06' E 113°49'  
Track history (hours):
 
Tides and Currents Weather Stations Pressure Air Temp Water Temp Dewpoint Dewpoint Depression Visibility Wind Speed Wind Dir Waves Ship Positions

Maersk Barry

Last reported at 2015-Jul-17 15:19 UTC. Time now 2015-Jul-29 13:32 UTC.
Position N 22°03' E 113°51'.
Warning: this ship's position is 11 days out of date.

Length 175 m; draft 6.8 m.

Type: Tanker. MMSI: 219127000.

Date/timePositionNaut miles runAvg speedWind from/ knotsBaromVisibWave heightAir tempDewpointWater temp
2015-Jul-17 15:19N 22°03' E 113°51'810.5
2015-Jul-17 14:33N 22°10' E 113°47'1211.9
2015-Jul-17 13:33N 22°22' E 113°47'2412.2
2015-Jul-17 11:33N 22°45' E 113°39'1010.4
2015-Jul-17 10:33N 22°55' E 113°34'4 3.6
2015-Jul-17 09:22N 22°59' E 113°33'0 0.0
2015-Jul-17 08:16N 22°59' E 113°33'0 0.0
2015-Jul-17 07:10N 22°59' E 113°33'0 0.0
2015-Jul-17 06:16N 22°59' E 113°33'0 0.0
2015-Jul-17 05:22N 22°59' E 113°33'0 0.0
2015-Jul-17 04:22N 22°59' E 113°33'0 0.0
2015-Jul-17 03:28N 22°59' E 113°33'0 0.0
2015-Jul-17 02:28N 22°59' E 113°33'0 0.0
2015-Jul-17 01:16N 22°59' E 113°33'0 0.0
2015-Jul-17 00:22N 22°59' E 113°33'0 0.0
2015-Jul-16 23:28N 22°59' E 113°33'0 0.0
2015-Jul-16 22:28N 22°59' E 113°33'0 0.0
2015-Jul-16 21:10N 22°59' E 113°33'0 0.0
2015-Jul-16 20:22N 22°59' E 113°33'0 0.0
2015-Jul-16 19:28N 22°59' E 113°33'0 0.0
2015-Jul-16 18:28N 22°59' E 113°33'0 0.0
2015-Jul-16 17:16N 22°59' E 113°33'0 0.0
2015-Jul-16 14:22N 22°59' E 113°33'0 0.0
2015-Jul-16 13:28N 22°59' E 113°33'0 0.0
2015-Jul-16 12:22N 22°59' E 113°33'0 0.0
2015-Jul-16 11:22N 22°59' E 113°33'0 0.0
2015-Jul-16 10:28N 22°59' E 113°33'0 0.0
2015-Jul-16 09:28N 22°59' E 113°33'0 0.0
2015-Jul-16 08:28N 22°59' E 113°33'0 0.0
2015-Jul-16 07:28N 22°59' E 113°33'0 0.0
2015-Jul-16 06:28N 22°59' E 113°33'0 0.0
2015-Jul-16 04:28N 22°59' E 113°33'0 0.0
2015-Jul-16 02:28N 22°59' E 113°33'0 0.0
2015-Jul-15 23:28N 22°59' E 113°33'0 0.0
2015-Jul-15 22:22N 22°59' E 113°33'0 0.0
2015-Jul-15 21:16N 22°59' E 113°33'0 0.0
2015-Jul-15 20:22N 22°59' E 113°33'0 0.0
2015-Jul-15 19:28N 22°59' E 113°33'0 0.0
2015-Jul-15 18:28N 22°59' E 113°33'0 0.0
2015-Jul-15 17:28N 22°59' E 113°33'0 0.0
2015-Jul-15 16:22N 22°59' E 113°33'0 0.0
2015-Jul-15 15:22N 22°59' E 113°33'0 0.0
2015-Jul-15 14:22N 22°59' E 113°33'0 0.0
2015-Jul-15 13:22N 22°59' E 113°33'0 0.0
2015-Jul-15 12:28N 22°59' E 113°33'0 0.0
2015-Jul-15 11:28N 22°59' E 113°33'0 0.0
2015-Jul-15 10:10N 22°59' E 113°33'0 0.0
2015-Jul-15 09:28N 22°59' E 113°33'0 0.0
2015-Jul-15 08:10N 22°59' E 113°33'0 0.0
2015-Jul-15 07:28N 22°59' E 113°33'0 0.2
2015-Jul-15 06:33N 22°59' E 113°32'6 6.1
2015-Jul-15 05:33N 22°53' E 113°34'8 7.5
2015-Jul-15 04:28N 22°46' E 113°39'2312.0
2015-Jul-15 02:33N 22°24' E 113°46'1211.9
2015-Jul-15 01:33N 22°12' E 113°47'7 6.7
2015-Jul-15 00:33N 22°06' E 113°49'  

Dump ship's entire track history